createdAt,value
2022-07-30T00:00:57.853Z,22.3
2022-07-30T00:02:00.286Z,22.3
2022-07-30T00:03:02.648Z,22.3
2022-07-30T00:04:05.486Z,22.3
2022-07-30T00:05:07.920Z,22.3
2022-07-30T00:06:10.551Z,22.3
2022-07-30T00:07:13.476Z,22.2
2022-07-30T00:08:16.192Z,22.2
2022-07-30T00:09:18.605Z,22.2
2022-07-30T00:10:21.805Z,22.2
2022-07-30T00:11:29.255Z,22.1
2022-07-30T00:12:32.378Z,22.1
2022-07-30T00:13:34.739Z,22.1
2022-07-30T00:14:37.396Z,22
2022-07-30T00:15:39.757Z,22.1
2022-07-30T00:16:42.901Z,22
2022-07-30T00:17:50.150Z,22
2022-07-30T00:18:54.068Z,22
2022-07-30T00:19:57.909Z,22
2022-07-30T00:21:02.311Z,21.9
2022-07-30T00:22:05.306Z,21.9
2022-07-30T00:23:07.715Z,21.9
2022-07-30T00:24:10.807Z,21.9
2022-07-30T00:25:13.996Z,21.9
2022-07-30T00:26:17.303Z,21.9
2022-07-30T00:27:19.656Z,21.9
2022-07-30T00:28:21.992Z,21.9
2022-07-30T00:29:24.622Z,21.9
2022-07-30T00:30:27.776Z,21.8
2022-07-30T00:31:30.432Z,21.8
2022-07-30T00:32:33.332Z,21.8
2022-07-30T00:33:36.022Z,21.8
2022-07-30T00:34:38.862Z,21.8
2022-07-30T00:35:40.933Z,21.8
2022-07-30T00:36:43.569Z,21.8
2022-07-30T00:37:46.862Z,21.8
2022-07-30T00:38:49.757Z,21.8
2022-07-30T00:39:52.934Z,21.8
2022-07-30T00:40:55.873Z,21.8
2022-07-30T00:41:58.751Z,21.8
2022-07-30T00:43:00.741Z,21.8
2022-07-30T00:44:03.130Z,21.8
2022-07-30T00:45:05.489Z,21.8
2022-07-30T00:46:08.839Z,21.8
2022-07-30T00:47:11.563Z,21.7
2022-07-30T00:48:14.818Z,21.8
2022-07-30T00:49:18.254Z,21.7
2022-07-30T00:50:24.494Z,21.7
2022-07-30T00:51:27.007Z,21.7
2022-07-30T00:52:29.882Z,21.7
2022-07-30T00:53:32.525Z,21.7
2022-07-30T00:54:35.094Z,21.7
2022-07-30T00:55:38.217Z,21.7
2022-07-30T00:56:41.119Z,21.7
2022-07-30T00:57:43.754Z,21.7
2022-07-30T00:58:45.898Z,21.7
2022-07-30T00:59:48.470Z,21.7
2022-07-30T01:00:51.747Z,21.7
2022-07-30T01:01:55.401Z,21.7
2022-07-30T01:02:58.146Z,21.7
2022-07-30T01:04:01.274Z,21.6
2022-07-30T01:05:04.406Z,21.6
2022-07-30T01:06:15.828Z,21.6
2022-07-30T01:07:18.121Z,21.6
2022-07-30T01:08:20.468Z,21.6
2022-07-30T01:09:23.041Z,21.6
2022-07-30T01:10:25.645Z,21.5
2022-07-30T01:11:28.555Z,21.5
2022-07-30T01:12:31.460Z,21.6
2022-07-30T01:13:34.096Z,21.6
2022-07-30T01:14:36.826Z,21.6
2022-07-30T01:15:40.033Z,21.6
2022-07-30T01:16:43.069Z,21.6
2022-07-30T01:17:54.333Z,21.6
2022-07-30T01:18:57.239Z,21.6
2022-07-30T01:19:59.587Z,21.6
2022-07-30T01:21:03.079Z,21.6
2022-07-30T01:22:06.260Z,21.6
2022-07-30T01:23:09.439Z,21.6
2022-07-30T01:24:12.419Z,21.6
2022-07-30T01:25:15.286Z,21.5
2022-07-30T01:26:18.133Z,21.5
2022-07-30T01:27:21.728Z,21.5
2022-07-30T01:28:24.234Z,21.5
2022-07-30T01:29:26.919Z,21.4
2022-07-30T01:30:29.761Z,21.4
2022-07-30T01:31:33.001Z,21.4
2022-07-30T01:32:35.939Z,21.4
2022-07-30T01:33:39.115Z,21.4
2022-07-30T01:34:41.460Z,21.4
2022-07-30T01:35:44.108Z,21.3
2022-07-30T01:36:46.741Z,21.4
2022-07-30T01:37:50.210Z,21.4
2022-07-30T01:38:52.839Z,21.4
2022-07-30T01:39:55.492Z,21.4
2022-07-30T01:40:58.409Z,21.4
2022-07-30T01:42:01.329Z,21.4
2022-07-30T01:43:08.745Z,21.4
2022-07-30T01:44:11.042Z,21.4
2022-07-30T01:45:14.005Z,21.4
2022-07-30T01:46:17.939Z,21.4
2022-07-30T01:47:20.917Z,21.4
2022-07-30T01:48:23.484Z,21.4
2022-07-30T01:49:26.738Z,21.4
2022-07-30T01:50:29.432Z,21.4
2022-07-30T01:51:38.812Z,21.4
2022-07-30T01:52:40.941Z,21.4
2022-07-30T01:53:43.870Z,21.4
2022-07-30T01:54:47.050Z,21.4
2022-07-30T01:55:49.403Z,21.4
2022-07-30T01:56:54.985Z,21.4
2022-07-30T01:57:57.415Z,21.4
2022-07-30T01:59:00.061Z,21.4
2022-07-30T02:00:02.965Z,21.4
2022-07-30T02:01:07.525Z,21.4
2022-07-30T02:02:10.613Z,21.4
2022-07-30T02:03:13.511Z,21.4
2022-07-30T02:04:16.590Z,21.4
2022-07-30T02:05:18.682Z,21.3
2022-07-30T02:06:21.595Z,21.3
2022-07-30T02:07:24.228Z,21.4
2022-07-30T02:08:26.619Z,21.4
2022-07-30T02:09:29.807Z,21.3
2022-07-30T02:10:32.691Z,21.4
2022-07-30T02:11:36.526Z,21.3
2022-07-30T02:12:39.167Z,21.3
2022-07-30T02:13:41.786Z,21.3
2022-07-30T02:14:43.814Z,21.3
2022-07-30T02:15:47.103Z,21.3
2022-07-30T02:16:50.337Z,21.3
2022-07-30T02:17:53.012Z,21.3
2022-07-30T02:18:59.913Z,21.3
2022-07-30T02:20:13.683Z,21.3
2022-07-30T02:21:15.990Z,21.2
2022-07-30T02:22:23.617Z,21.2
2022-07-30T02:23:27.190Z,21.2
2022-07-30T02:24:29.547Z,21.2
2022-07-30T02:25:31.626Z,21.2
2022-07-30T02:26:34.029Z,21.2
2022-07-30T02:27:39.431Z,21.2
2022-07-30T02:28:42.117Z,21.2
2022-07-30T02:29:45.321Z,21.2
2022-07-30T02:30:47.677Z,21.2
2022-07-30T02:31:50.715Z,21.2
2022-07-30T02:32:53.445Z,21.2
2022-07-30T02:33:56.404Z,21.2
2022-07-30T02:34:59.250Z,21.2
2022-07-30T02:36:02.765Z,21.2
2022-07-30T02:37:13.783Z,21.1
2022-07-30T02:38:16.682Z,21.1
2022-07-30T02:39:19.074Z,21.1
2022-07-30T02:40:21.040Z,21.1
2022-07-30T02:41:24.001Z,21.1
2022-07-30T02:42:27.126Z,21.1
2022-07-30T02:43:38.049Z,21.1
2022-07-30T02:44:41.240Z,21.1
2022-07-30T02:45:44.029Z,21
2022-07-30T02:46:46.563Z,21
2022-07-30T02:47:50.083Z,21
2022-07-30T02:48:52.860Z,21
2022-07-30T02:49:55.272Z,21
2022-07-30T02:50:58.453Z,21
2022-07-30T02:52:01.409Z,21
2022-07-30T02:53:03.789Z,20.9
2022-07-30T02:54:06.075Z,20.9
2022-07-30T02:55:08.986Z,20.9
2022-07-30T02:56:11.890Z,21
2022-07-30T02:57:14.242Z,20.9
2022-07-30T02:58:17.153Z,21
2022-07-30T02:59:19.824Z,21
2022-07-30T03:00:23.231Z,21
2022-07-30T03:01:25.934Z,20.9
2022-07-30T03:02:32.911Z,20.9
2022-07-30T03:03:41.328Z,20.9
2022-07-30T03:04:44.062Z,20.9
2022-07-30T03:05:52.684Z,20.9
2022-07-30T03:06:55.107Z,20.9
2022-07-30T03:07:58.233Z,20.9
2022-07-30T03:09:01.162Z,20.9
2022-07-30T03:10:03.875Z,20.8
2022-07-30T03:11:07.082Z,20.9
2022-07-30T03:12:10.443Z,20.9
2022-07-30T03:13:13.584Z,20.9
2022-07-30T03:14:16.165Z,20.9
2022-07-30T03:15:19.620Z,20.9
2022-07-30T03:16:22.971Z,20.9
2022-07-30T03:17:25.616Z,20.9
2022-07-30T03:18:28.570Z,20.8
2022-07-30T03:19:31.412Z,20.9
2022-07-30T03:20:33.998Z,20.9
2022-07-30T03:21:36.878Z,20.9
2022-07-30T03:22:40.144Z,20.9
2022-07-30T03:23:43.613Z,20.9
2022-07-30T03:24:45.971Z,20.9
2022-07-30T03:25:48.879Z,20.9
2022-07-30T03:26:51.455Z,20.9
2022-07-30T03:27:54.207Z,20.9
2022-07-30T03:28:56.830Z,20.9
2022-07-30T03:29:59.504Z,20.9
2022-07-30T03:31:03.379Z,20.9
2022-07-30T03:32:13.597Z,20.9
2022-07-30T03:33:19.652Z,20.9
2022-07-30T03:34:24.841Z,20.9
2022-07-30T03:35:31.564Z,20.9
2022-07-30T03:36:34.120Z,21
2022-07-30T03:37:37.032Z,20.9
2022-07-30T03:38:39.378Z,20.9
2022-07-30T03:39:42.211Z,20.9
2022-07-30T03:40:44.816Z,20.8
2022-07-30T03:41:47.363Z,20.9
2022-07-30T03:42:50.577Z,20.9
2022-07-30T03:43:53.741Z,20.9
2022-07-30T03:44:56.587Z,20.9
2022-07-30T03:45:59.782Z,20.9
2022-07-30T03:47:04.857Z,20.9
2022-07-30T03:48:07.394Z,20.9
2022-07-30T03:49:12.371Z,20.9
2022-07-30T03:50:14.910Z,20.9
2022-07-30T03:51:17.224Z,21.2
2022-07-30T03:52:20.727Z,21.3
2022-07-30T03:53:23.110Z,21.3
2022-07-30T03:54:25.662Z,21.1
2022-07-30T03:55:28.482Z,21
2022-07-30T03:56:30.531Z,21
2022-07-30T03:57:33.420Z,21
2022-07-30T03:58:37.948Z,21
2022-07-30T03:59:40.863Z,21
2022-07-30T04:00:44.324Z,21
2022-07-30T04:01:48.180Z,21
2022-07-30T04:02:50.814Z,21
2022-07-30T04:03:53.879Z,21
2022-07-30T04:04:56.672Z,20.9
2022-07-30T04:05:59.284Z,20.9
2022-07-30T04:07:03.829Z,21
2022-07-30T04:08:09.554Z,20.9
2022-07-30T04:09:12.929Z,21
2022-07-30T04:10:15.841Z,21
2022-07-30T04:11:42.573Z,21
2022-07-30T04:12:45.955Z,21
2022-07-30T04:13:48.798Z,21
2022-07-30T04:14:51.704Z,21
2022-07-30T04:16:44.126Z,21
2022-07-30T04:17:48.290Z,21
2022-07-30T04:18:50.654Z,21
2022-07-30T04:19:53.629Z,21
2022-07-30T04:20:56.848Z,21
2022-07-30T04:21:58.984Z,21
2022-07-30T04:23:01.870Z,21
2022-07-30T04:24:07.237Z,21
2022-07-30T04:25:10.146Z,21
2022-07-30T04:26:26.953Z,21
2022-07-30T04:27:29.950Z,21
2022-07-30T04:28:32.028Z,21
2022-07-30T04:29:34.658Z,20.9
2022-07-30T04:30:37.015Z,21
2022-07-30T04:31:42.917Z,21
2022-07-30T04:32:45.671Z,21
2022-07-30T04:33:48.879Z,21
2022-07-30T04:34:51.252Z,21
2022-07-30T04:35:54.227Z,21
2022-07-30T04:36:56.316Z,21
2022-07-30T04:38:00.388Z,21
2022-07-30T04:39:03.017Z,21
2022-07-30T04:40:05.372Z,21.1
2022-07-30T04:41:08.492Z,21
2022-07-30T04:42:11.162Z,21
2022-07-30T04:43:14.049Z,21.1
2022-07-30T04:44:16.438Z,21.1
2022-07-30T04:45:19.264Z,21
2022-07-30T04:46:26.783Z,21.1
2022-07-30T04:47:30.550Z,21
2022-07-30T04:48:35.972Z,21
2022-07-30T04:49:38.329Z,21
2022-07-30T04:50:41.513Z,21
2022-07-30T04:51:44.186Z,21
2022-07-30T04:52:47.580Z,21
2022-07-30T04:53:49.929Z,21
2022-07-30T04:54:52.199Z,21.1
2022-07-30T04:55:55.378Z,21
2022-07-30T04:56:57.787Z,21.1
2022-07-30T04:58:02.882Z,21.1
2022-07-30T04:59:05.513Z,21.1
2022-07-30T05:00:08.638Z,21.2
2022-07-30T05:01:11.870Z,21.1
2022-07-30T05:02:15.130Z,21.1
2022-07-30T05:03:17.835Z,21.2
2022-07-30T05:04:20.527Z,21.2
2022-07-30T05:05:23.980Z,21.2
2022-07-30T05:06:26.814Z,21.2
2022-07-30T05:07:29.167Z,21.3
2022-07-30T05:08:32.354Z,21.3
2022-07-30T05:09:34.770Z,21.3
2022-07-30T05:10:37.950Z,21.3
2022-07-30T05:11:40.573Z,21.2
2022-07-30T05:12:43.502Z,21.3
2022-07-30T05:13:48.023Z,21.3
2022-07-30T05:14:50.721Z,21.3
2022-07-30T05:15:53.645Z,21.3
2022-07-30T05:16:56.110Z,21.3
2022-07-30T05:17:58.743Z,21.2
2022-07-30T05:19:08.055Z,21.3
2022-07-30T05:20:10.705Z,21.3
2022-07-30T05:21:13.329Z,21.4
2022-07-30T05:22:15.955Z,21.4
2022-07-30T05:23:18.578Z,21.4
2022-07-30T05:24:21.203Z,21.5
2022-07-30T05:25:23.886Z,21.5
2022-07-30T05:26:28.761Z,21.5
2022-07-30T05:27:31.456Z,21.5
2022-07-30T05:28:37.391Z,21.5
2022-07-30T05:29:45.596Z,21.5
2022-07-30T05:30:48.873Z,21.5
2022-07-30T05:31:53.910Z,21.6
2022-07-30T05:32:58.100Z,21.6
2022-07-30T05:34:06.224Z,21.6
2022-07-30T05:35:08.846Z,21.6
2022-07-30T05:36:11.478Z,21.6
2022-07-30T05:37:14.423Z,21.7
2022-07-30T05:38:17.127Z,21.7
2022-07-30T05:39:19.765Z,21.7
2022-07-30T05:40:22.465Z,21.7
2022-07-30T05:41:34.624Z,21.8
2022-07-30T05:42:37.741Z,21.8
2022-07-30T05:43:42.452Z,21.8
2022-07-30T05:44:45.301Z,21.8
2022-07-30T05:45:47.653Z,21.9
2022-07-30T05:46:50.000Z,21.9
2022-07-30T05:47:52.930Z,21.9
2022-07-30T05:48:56.242Z,21.9
2022-07-30T05:50:06.329Z,21.9
2022-07-30T05:51:08.673Z,22
2022-07-30T05:52:11.809Z,22
2022-07-30T05:53:14.859Z,22.1
2022-07-30T05:54:17.753Z,22.1
2022-07-30T05:55:20.421Z,22.1
2022-07-30T05:56:23.311Z,22.1
2022-07-30T05:57:25.701Z,22.1
2022-07-30T05:58:28.336Z,22.2
2022-07-30T05:59:31.245Z,22.3
2022-07-30T06:00:33.901Z,22.3
2022-07-30T06:01:36.861Z,22.3
2022-07-30T06:02:39.560Z,22.4
2022-07-30T06:03:42.446Z,22.4
2022-07-30T06:04:48.238Z,22.3
2022-07-30T06:05:51.186Z,22.4
2022-07-30T06:06:54.100Z,22.5
2022-07-30T06:07:56.235Z,22.4
2022-07-30T06:08:59.742Z,22.5
2022-07-30T06:10:02.936Z,22.5
2022-07-30T06:11:05.567Z,22.6
2022-07-30T06:12:07.920Z,22.6
2022-07-30T06:13:10.825Z,22.6
2022-07-30T06:14:15.385Z,22.7
2022-07-30T06:15:27.366Z,22.7
2022-07-30T06:16:30.098Z,22.4
2022-07-30T06:17:44.042Z,22.5
2022-07-30T06:19:05.035Z,22.6
2022-07-30T06:20:08.502Z,22.6
2022-07-30T06:21:11.403Z,22.6
2022-07-30T06:22:14.039Z,22.5
2022-07-30T06:23:16.670Z,22.4
2022-07-30T06:24:22.983Z,22.5
2022-07-30T06:25:32.410Z,22.6
2022-07-30T06:26:35.599Z,22.6
2022-07-30T06:27:41.267Z,22.6
2022-07-30T06:28:44.405Z,22.5
2022-07-30T06:29:47.084Z,22.6
2022-07-30T06:30:50.887Z,22.7
2022-07-30T06:31:53.629Z,22.7
2022-07-30T06:32:56.546Z,22.6
2022-07-30T06:33:59.179Z,22.7
2022-07-30T06:35:06.054Z,22.8
2022-07-30T06:36:15.188Z,22.8
2022-07-30T06:37:18.307Z,22.8
2022-07-30T06:38:20.878Z,22.7
2022-07-30T06:39:59.748Z,22.8
2022-07-30T06:41:05.993Z,22.9
2022-07-30T06:42:09.175Z,23
2022-07-30T06:43:11.872Z,23
2022-07-30T06:44:14.714Z,23.1
2022-07-30T06:45:17.410Z,23.1
2022-07-30T06:46:20.245Z,23.2
2022-07-30T06:47:23.585Z,23.3
2022-07-30T06:48:26.767Z,23.3
2022-07-30T06:49:29.728Z,23.4
2022-07-30T06:50:32.021Z,23.4
2022-07-30T06:51:35.256Z,23.4
2022-07-30T06:52:38.167Z,23.4
2022-07-30T06:53:44.213Z,23.4
2022-07-30T06:54:47.676Z,23.4
2022-07-30T06:55:50.034Z,23.4
2022-07-30T06:56:55.954Z,23.4
2022-07-30T06:57:58.291Z,23.4
2022-07-30T06:59:00.585Z,23.4
2022-07-30T07:00:03.534Z,23.5
2022-07-30T07:01:13.045Z,23.4
2022-07-30T07:02:16.320Z,23.5
2022-07-30T07:03:20.315Z,23.4
2022-07-30T07:04:22.926Z,23.4
2022-07-30T07:05:25.345Z,23.4
2022-07-30T07:06:27.904Z,23.4
2022-07-30T07:08:00.223Z,23.4
2022-07-30T07:09:03.305Z,23.4
2022-07-30T07:10:06.501Z,23.5
2022-07-30T07:11:08.727Z,23.5
2022-07-30T07:12:11.353Z,23.5
2022-07-30T07:13:14.522Z,23.5
2022-07-30T07:14:16.606Z,23.6
2022-07-30T07:15:18.679Z,23.6
2022-07-30T07:16:25.065Z,23.7
2022-07-30T07:17:27.829Z,23.7
2022-07-30T07:18:30.744Z,23.8
2022-07-30T07:20:03.818Z,23.8
2022-07-30T07:21:08.989Z,23.9
2022-07-30T07:22:12.053Z,24
2022-07-30T07:23:15.457Z,24.1
2022-07-30T07:24:23.085Z,24
2022-07-30T07:25:25.453Z,24.1
2022-07-30T07:26:28.426Z,24.2
2022-07-30T07:27:31.829Z,24.2
2022-07-30T07:28:35.056Z,24.3
2022-07-30T07:29:37.572Z,24.3
2022-07-30T07:30:40.584Z,24.3
2022-07-30T07:32:09.545Z,24.4
2022-07-30T07:33:11.760Z,24.5
2022-07-30T07:34:18.286Z,24.6
2022-07-30T07:35:21.756Z,24.6
2022-07-30T07:36:24.662Z,24.6
2022-07-30T07:37:26.764Z,24.6
2022-07-30T07:38:29.409Z,24.7
2022-07-30T07:39:32.536Z,24.7
2022-07-30T07:40:36.205Z,24.8
2022-07-30T07:41:50.776Z,24.8
2022-07-30T07:42:53.646Z,24.8
2022-07-30T07:43:55.996Z,25
2022-07-30T07:44:58.635Z,25
2022-07-30T07:46:02.032Z,25
2022-07-30T07:47:05.804Z,25.1
2022-07-30T07:48:08.748Z,25.2
2022-07-30T07:49:11.854Z,25.2
2022-07-30T07:50:14.593Z,25.3
2022-07-30T07:51:49.408Z,25.4
2022-07-30T07:52:52.304Z,25.4
2022-07-30T07:54:24.520Z,25.3
2022-07-30T07:55:28.305Z,25.4
2022-07-30T07:56:40.152Z,25.5
2022-07-30T07:57:44.788Z,25.5
2022-07-30T07:58:57.419Z,25.5
2022-07-30T08:00:00.582Z,25.6
2022-07-30T08:01:03.672Z,25.7
2022-07-30T08:02:10.128Z,25.6
2022-07-30T08:03:13.835Z,25.7
2022-07-30T08:04:16.965Z,25.8
2022-07-30T08:05:19.767Z,25.9
2022-07-30T08:06:22.732Z,25.9
2022-07-30T08:07:25.855Z,25.9
2022-07-30T08:08:28.257Z,26
2022-07-30T08:09:46.404Z,25.9
2022-07-30T08:10:48.359Z,26
2022-07-30T08:11:50.431Z,26
2022-07-30T08:12:53.004Z,26
2022-07-30T08:13:55.907Z,26.1
2022-07-30T08:14:59.305Z,26.2
2022-07-30T08:16:01.946Z,26.2
2022-07-30T08:17:08.004Z,26.2
2022-07-30T08:18:11.376Z,26.3
2022-07-30T08:19:13.799Z,26.3
2022-07-30T08:20:16.929Z,26.3
2022-07-30T08:21:20.077Z,26.4
2022-07-30T08:22:22.974Z,26.4
2022-07-30T08:23:25.328Z,26.5
2022-07-30T08:24:28.021Z,26.5
2022-07-30T08:25:30.928Z,26.6
2022-07-30T08:26:33.869Z,26.7
2022-07-30T08:27:37.057Z,26.7
2022-07-30T08:28:42.492Z,26.8
2022-07-30T08:29:45.392Z,26.8
2022-07-30T08:30:48.587Z,26.9
2022-07-30T08:31:51.479Z,26.9
2022-07-30T08:32:53.897Z,27
2022-07-30T08:33:56.238Z,27
2022-07-30T08:35:00.102Z,27
2022-07-30T08:36:11.360Z,27.1
2022-07-30T08:37:15.619Z,27.2
2022-07-30T08:38:18.191Z,27.2
2022-07-30T08:39:21.326Z,27.2
2022-07-30T08:40:23.898Z,27.2
2022-07-30T08:41:26.746Z,27.3
2022-07-30T08:42:29.433Z,27.3
2022-07-30T08:43:32.109Z,27.4
2022-07-30T08:44:34.543Z,27.4
2022-07-30T08:45:37.735Z,27.4
2022-07-30T08:46:40.520Z,27.4
2022-07-30T08:47:43.759Z,27.4
2022-07-30T08:48:47.171Z,27.5
2022-07-30T08:49:49.907Z,27.6
2022-07-30T08:50:52.529Z,27.6
2022-07-30T08:51:54.646Z,27.7
2022-07-30T08:52:57.501Z,27.7
2022-07-30T08:53:59.852Z,27.8
2022-07-30T08:55:02.257Z,27.8
2022-07-30T08:56:05.437Z,27.9
2022-07-30T08:57:08.067Z,27.9
2022-07-30T08:58:12.702Z,27.9
2022-07-30T08:59:21.222Z,28
2022-07-30T09:00:23.788Z,28
2022-07-30T09:01:26.640Z,28.1
2022-07-30T09:02:30.951Z,28.1
2022-07-30T09:03:33.535Z,28.2
2022-07-30T09:04:36.108Z,28.2
2022-07-30T09:05:38.731Z,28.1
2022-07-30T09:06:43.006Z,28.2
2022-07-30T09:07:45.410Z,28.1
2022-07-30T09:08:48.329Z,28.2
2022-07-30T09:09:50.127Z,28.2
2022-07-30T09:10:54.967Z,28.2
2022-07-30T09:11:57.032Z,28.3
2022-07-30T09:12:59.445Z,28.4
2022-07-30T09:14:09.261Z,28.5
2022-07-30T09:15:11.604Z,28.5
2022-07-30T09:17:16.720Z,28.6
2022-07-30T09:18:19.347Z,28.7
2022-07-30T09:19:22.254Z,28.8
2022-07-30T09:20:25.448Z,28.8
2022-07-30T09:21:27.800Z,28.8
2022-07-30T09:22:30.164Z,28.9
2022-07-30T09:23:32.726Z,29
2022-07-30T09:24:35.864Z,29.1
2022-07-30T09:25:38.780Z,29.1
2022-07-30T09:26:41.132Z,29.2
2022-07-30T09:27:43.984Z,29.1
2022-07-30T09:28:46.391Z,29.2
2022-07-30T09:29:49.581Z,29.3
2022-07-30T09:30:52.283Z,29.4
2022-07-30T09:31:55.498Z,29.4
2022-07-30T09:32:58.138Z,29.5
2022-07-30T09:34:00.693Z,29.6
2022-07-30T09:35:07.986Z,29.7
2022-07-30T09:36:10.615Z,29.7
2022-07-30T09:37:14.590Z,29.7
2022-07-30T09:38:17.719Z,29.9
2022-07-30T09:39:20.507Z,29.9
2022-07-30T09:40:33.855Z,29.9
2022-07-30T09:41:41.248Z,30
2022-07-30T09:42:44.166Z,30.1
2022-07-30T09:43:47.384Z,30.1
2022-07-30T09:44:49.748Z,30.1
2022-07-30T09:45:58.972Z,30.2
2022-07-30T09:47:01.253Z,30.3
2022-07-30T09:48:03.824Z,30.5
2022-07-30T09:49:06.782Z,30.5
2022-07-30T09:50:10.016Z,30.6
2022-07-30T09:51:58.179Z,30.6
2022-07-30T09:53:01.900Z,30.8
2022-07-30T09:54:10.214Z,30.8
2022-07-30T09:55:13.262Z,30.7
2022-07-30T09:56:19.372Z,30.8
2022-07-30T10:00:56.726Z,31
2022-07-30T10:02:11.154Z,31.2
2022-07-30T10:03:44.221Z,31.3
2022-07-30T10:04:51.099Z,31.3
2022-07-30T10:05:55.581Z,31.4
2022-07-30T10:06:58.414Z,31.5
2022-07-30T10:08:20.448Z,31.5
2022-07-30T10:09:23.184Z,31.6
2022-07-30T10:10:27.382Z,31.6
2022-07-30T10:11:34.066Z,31.5
2022-07-30T10:12:40.610Z,31.5
2022-07-30T10:13:50.294Z,31.6
2022-07-30T10:14:56.084Z,31.5
2022-07-30T10:16:02.687Z,31.6
2022-07-30T10:17:08.318Z,31.7
2022-07-30T10:18:12.731Z,31.7
2022-07-30T10:19:42.968Z,31.8
2022-07-30T10:20:53.456Z,31.9
2022-07-30T10:21:57.181Z,32
2022-07-30T10:23:10.537Z,31.9
2022-07-30T10:24:36.916Z,31.9
2022-07-30T10:25:56.834Z,31.9
2022-07-30T10:27:07.671Z,32
2022-07-30T10:28:11.371Z,32.3
2022-07-30T10:29:19.574Z,32.3
2022-07-30T10:30:31.417Z,32.5
2022-07-30T10:31:56.432Z,32.6
2022-07-30T10:33:00.316Z,32.7
2022-07-30T10:34:05.279Z,32.8
2022-07-30T10:35:11.397Z,32.9
2022-07-30T10:36:17.409Z,33
2022-07-30T10:37:22.741Z,33
2022-07-30T10:38:25.631Z,33.1
2022-07-30T10:39:35.909Z,33
2022-07-30T10:40:42.988Z,32.9
2022-07-30T10:41:55.355Z,32.8
2022-07-30T10:42:57.865Z,32.9
2022-07-30T10:44:00.698Z,32.9
2022-07-30T10:45:05.866Z,32.9
2022-07-30T10:46:23.685Z,32.8
2022-07-30T10:47:50.245Z,32.7
2022-07-30T10:48:53.923Z,32.8
2022-07-30T10:49:57.043Z,32.8
2022-07-30T10:51:05.089Z,32.9
2022-07-30T10:52:09.630Z,32.9
2022-07-30T10:53:14.390Z,32.9
2022-07-30T10:54:19.105Z,32.9
2022-07-30T10:55:40.318Z,32.9
2022-07-30T10:56:45.747Z,32.8
2022-07-30T10:57:52.541Z,32.6
2022-07-30T10:59:03.311Z,32.7
2022-07-30T11:00:05.782Z,32.7
2022-07-30T11:01:23.470Z,32.7
2022-07-30T11:02:35.464Z,32.8
2022-07-30T11:03:50.772Z,32.8
2022-07-30T11:04:56.926Z,33
2022-07-30T11:06:03.059Z,33.1
2022-07-30T11:07:06.240Z,33.1
2022-07-30T11:08:14.550Z,33.2
2022-07-30T11:09:19.009Z,33.2
2022-07-30T11:10:21.925Z,33.1
2022-07-30T11:12:20.559Z,32.9
2022-07-30T11:13:30.951Z,32.5
2022-07-30T11:14:49.055Z,32.3
2022-07-30T11:15:52.899Z,32.3
2022-07-30T11:16:57.907Z,32.3
2022-07-30T11:18:02.863Z,32.4
2022-07-30T11:20:02.701Z,32.5
2022-07-30T11:21:13.997Z,32.6
2022-07-30T11:22:16.638Z,32.6
2022-07-30T11:23:19.270Z,32.7
2022-07-30T11:24:23.061Z,32.7
2022-07-30T11:25:56.107Z,32.6
2022-07-30T11:26:59.220Z,32.6
2022-07-30T11:28:04.054Z,32.5
2022-07-30T11:29:10.656Z,32.4
2022-07-30T11:30:18.904Z,32.3
2022-07-30T11:32:09.483Z,32.2
2022-07-30T11:33:13.851Z,31.9
2022-07-30T11:34:16.828Z,32
2022-07-30T11:35:23.756Z,32
2022-07-30T11:36:26.512Z,31.9
2022-07-30T11:37:37.406Z,31.8
2022-07-30T11:38:54.737Z,31.7
2022-07-30T11:39:57.022Z,31.7
2022-07-30T11:41:01.288Z,31.4
2022-07-30T11:42:05.619Z,31.4
2022-07-30T11:43:08.256Z,31.4
2022-07-30T11:44:10.947Z,31.4
2022-07-30T11:45:13.306Z,31.4
2022-07-30T11:46:30.174Z,31.2
2022-07-30T11:47:32.865Z,31.1
2022-07-30T11:48:35.429Z,31.1
2022-07-30T11:49:38.963Z,31
2022-07-30T11:50:41.252Z,31
2022-07-30T11:51:43.692Z,31
2022-07-30T11:52:47.157Z,30.9
2022-07-30T11:53:49.495Z,30.9
2022-07-30T11:54:52.059Z,30.8
2022-07-30T11:55:54.970Z,30.7
2022-07-30T11:57:05.650Z,30.8
2022-07-30T11:58:09.053Z,30.8
2022-07-30T11:59:12.215Z,30.7
2022-07-30T12:00:14.849Z,30.7
2022-07-30T12:01:17.725Z,30.7
2022-07-30T12:02:20.682Z,30.7
2022-07-30T12:03:23.533Z,30.6
2022-07-30T12:04:26.438Z,30.7
2022-07-30T12:05:29.070Z,30.6
2022-07-30T12:06:31.707Z,30.4
2022-07-30T12:07:34.397Z,30.2
2022-07-30T12:08:38.417Z,30.2
2022-07-30T12:09:48.546Z,30
2022-07-30T12:10:51.121Z,30
2022-07-30T12:11:53.753Z,29.9
2022-07-30T12:12:56.040Z,29.8
2022-07-30T12:13:59.173Z,29.9
2022-07-30T12:15:03.559Z,29.9
2022-07-30T12:16:05.914Z,30
2022-07-30T12:17:17.179Z,30
2022-07-30T12:18:28.679Z,30
2022-07-30T12:19:50.305Z,30
2022-07-30T12:20:52.904Z,30
2022-07-30T12:21:55.252Z,30
2022-07-30T12:22:58.163Z,30
2022-07-30T12:24:01.020Z,30
2022-07-30T12:25:03.593Z,30
2022-07-30T12:26:05.676Z,30
2022-07-30T12:27:07.751Z,30
2022-07-30T12:28:18.434Z,30
2022-07-30T12:29:21.997Z,30
2022-07-30T12:30:25.766Z,29.9
2022-07-30T12:31:28.411Z,29.9
2022-07-30T12:32:31.046Z,29.9
2022-07-30T12:33:33.400Z,29.9
2022-07-30T12:34:36.523Z,29.9
2022-07-30T12:35:39.215Z,29.9
2022-07-30T12:36:41.775Z,29.9
2022-07-30T12:37:44.685Z,29.9
2022-07-30T12:38:47.698Z,29.9
2022-07-30T12:39:50.737Z,29.9
2022-07-30T12:40:53.154Z,30
2022-07-30T12:41:55.783Z,30
2022-07-30T12:42:58.713Z,30
2022-07-30T12:44:01.692Z,30
2022-07-30T12:45:04.814Z,30
2022-07-30T12:46:15.392Z,29.9
2022-07-30T12:47:18.824Z,29.9
2022-07-30T12:48:23.708Z,29.9
2022-07-30T12:49:54.288Z,29.9
2022-07-30T12:50:57.284Z,29.9
2022-07-30T12:52:02.575Z,29.8
2022-07-30T12:53:05.726Z,29.8
2022-07-30T12:54:08.642Z,29.8
2022-07-30T12:55:11.482Z,29.9
2022-07-30T12:56:13.832Z,29.9
2022-07-30T12:57:17.186Z,29.9
2022-07-30T12:58:20.081Z,29.9
2022-07-30T12:59:22.719Z,29.9
2022-07-30T13:00:26.187Z,29.8
2022-07-30T13:01:29.395Z,29.8
2022-07-30T13:02:32.056Z,29.7
2022-07-30T13:03:38.365Z,29.7
2022-07-30T13:05:12.922Z,29.7
2022-07-30T13:06:16.298Z,29.7
2022-07-30T13:07:18.937Z,29.8
2022-07-30T13:08:21.561Z,29.8
2022-07-30T13:09:24.190Z,29.8
2022-07-30T13:10:32.910Z,29.8
2022-07-30T13:11:36.314Z,29.8
2022-07-30T13:12:39.440Z,29.8
2022-07-30T13:13:42.073Z,29.9
2022-07-30T13:14:44.699Z,29.9
2022-07-30T13:15:55.778Z,29.9
2022-07-30T13:16:59.433Z,29.8
2022-07-30T13:18:02.138Z,29.8
2022-07-30T13:19:05.297Z,29.8
2022-07-30T13:20:08.381Z,29.8
2022-07-30T13:21:11.329Z,29.8
2022-07-30T13:22:14.164Z,29.8
2022-07-30T13:23:16.552Z,29.8
2022-07-30T13:24:19.912Z,29.8
2022-07-30T13:25:23.188Z,29.8
2022-07-30T13:26:26.070Z,29.8
2022-07-30T13:27:28.991Z,30
2022-07-30T13:28:31.834Z,30
2022-07-30T13:29:34.954Z,30.1
2022-07-30T13:30:38.147Z,30.3
2022-07-30T13:31:45.750Z,30.5
2022-07-30T13:32:49.361Z,30.5
2022-07-30T13:33:53.081Z,30.6
2022-07-30T13:35:06.237Z,30.6
2022-07-30T13:36:10.866Z,30.7
2022-07-30T13:37:14.961Z,30.7
2022-07-30T13:38:20.102Z,30.7
2022-07-30T13:39:24.163Z,30.7
2022-07-30T13:40:28.906Z,30.7
2022-07-30T13:41:33.811Z,30.7
2022-07-30T13:42:38.632Z,30.7
2022-07-30T13:43:41.696Z,30.6
2022-07-30T13:44:48.426Z,30.6
2022-07-30T13:45:51.143Z,30.6
2022-07-30T13:46:55.308Z,30.5
2022-07-30T13:48:04.289Z,30.5
2022-07-30T13:49:06.614Z,30.5
2022-07-30T13:50:09.538Z,30.5
2022-07-30T13:51:12.721Z,30.5
2022-07-30T13:52:15.353Z,30.4
2022-07-30T13:53:18.201Z,30.4
2022-07-30T13:54:21.121Z,30.4
2022-07-30T13:55:23.775Z,30.4
2022-07-30T13:56:26.711Z,30.3
2022-07-30T13:57:29.503Z,30.3
2022-07-30T13:58:37.827Z,30.3
2022-07-30T13:59:40.902Z,30.3
2022-07-30T14:00:43.864Z,30.3
2022-07-30T14:01:47.707Z,30.3
2022-07-30T14:02:50.732Z,30.3
2022-07-30T14:03:53.926Z,30.3
2022-07-30T14:04:56.346Z,30.3
2022-07-30T14:06:13.141Z,30.3
2022-07-30T14:07:16.734Z,30.3
2022-07-30T14:08:21.580Z,30.2
2022-07-30T14:09:25.124Z,30.2
2022-07-30T14:10:28.911Z,30.1
2022-07-30T14:11:32.770Z,30
2022-07-30T14:12:36.932Z,29.9
2022-07-30T14:13:40.670Z,29.9
2022-07-30T14:14:44.112Z,29.9
2022-07-30T14:15:49.258Z,29.8
2022-07-30T14:17:02.633Z,29.8
2022-07-30T14:18:07.895Z,29.8
2022-07-30T14:19:25.929Z,29.8
2022-07-30T14:20:31.787Z,29.8
2022-07-30T14:21:36.568Z,29.8
2022-07-30T14:22:40.617Z,29.8
2022-07-30T14:23:44.978Z,29.8
2022-07-30T14:24:50.864Z,29.8
2022-07-30T14:25:54.116Z,29.7
2022-07-30T14:27:01.552Z,29.7
2022-07-30T14:28:05.122Z,29.7
2022-07-30T14:29:10.518Z,29.6
2022-07-30T14:30:16.201Z,29.6
2022-07-30T14:31:21.132Z,29.5
2022-07-30T14:32:32.581Z,29.5
2022-07-30T14:33:36.619Z,29.5
2022-07-30T14:34:49.338Z,29.4
2022-07-30T14:35:52.247Z,29.4
2022-07-30T14:36:54.877Z,29.4
2022-07-30T14:37:57.779Z,29.3